Callison, South Carolina
Current Conditions -  °F | °C
As of 5:56 PM on Saturday 20 Dec 2014 (Local Time) from KGRD Reporting Station
Overcast Overcast  
Wind Chill: 44°   Ceiling: 900
Heat Index: 46°   Visibility: 8mi
Dew Point: 42°   Wind: 5mph
Humidity: 86%   Direction: 70°ENE
Pressure: 30.22"   Gusts: NA
Location:  34.036°N, 82.2186°W
Report Text: KGRD 202256Z AUTO 07004KT 8SM OVC009 08/06 A3022 RMK AO2 SLP233 T00780056
Loading
Personal Weather Stations






























Interactive Weather Map New forecast layout! Learn more

10-Day Weather Forecast

Advertisements
Track Severe Weather on mobile